Time;durP1;ratioP1;P1;durP2;ratioP2;P2;SDS_P1;SDS_P2;PMS_P1;PMS_P2;Temp;Humidity;BMP_temperature;BMP_pressure;BME280_temperature;BME280_humidity;BME280_pressure;Samples;Min_cycle;Max_cycle;Signal;HPM_P1;HPM_P2
2022/07/02 00:00:03;;;;;;;3.95;1.23;;;22.90;60.50;;;;;;5030210;28;20484;-59
2022/07/02 00:02:29;;;;;;;4.90;1.67;;;22.90;60.50;;;;;;5041110;28;20456;-58
2022/07/02 00:04:59;;;;;;;2.30;1.20;;;22.90;60.60;;;;;;5014287;28;20079;-59
2022/07/02 00:07:25;;;;;;;1.65;1.10;;;22.90;60.20;;;;;;5021556;28;20231;-60
2022/07/02 00:09:55;;;;;;;5.13;1.40;;;22.90;60.50;;;;;;5027727;28;20043;-59
2022/07/02 00:12:22;;;;;;;1.73;1.20;;;22.80;60.10;;;;;;5023891;28;20029;-58
2022/07/02 00:14:50;;;;;;;4.15;1.33;;;22.80;60.50;;;;;;5034661;28;20025;-60
2022/07/02 00:17:16;;;;;;;1.13;1.02;;;22.80;60.50;;;;;;5003484;28;20033;-58
2022/07/02 00:19:41;;;;;;;2.42;1.30;;;22.80;60.10;;;;;;5007514;28;20029;-62
2022/07/02 00:22:07;;;;;;;1.88;1.25;;;22.80;60.50;;;;;;5023442;28;20021;-60
2022/07/02 00:24:32;;;;;;;1.73;0.98;;;22.90;60.50;;;;;;5038306;28;20022;-59
2022/07/02 00:26:58;;;;;;;2.17;1.23;;;22.80;60.40;;;;;;5021431;28;20507;-59
2022/07/02 00:29:29;;;;;;;1.60;1.08;;;22.80;60.50;;;;;;5004091;28;20029;-59
2022/07/02 00:31:55;;;;;;;1.85;0.93;;;22.80;60.40;;;;;;5023013;28;20029;-58
2022/07/02 00:34:21;;;;;;;2.90;0.98;;;22.80;60.50;;;;;;5023155;28;20205;-58
2022/07/02 00:36:47;;;;;;;1.27;1.10;;;22.80;60.40;;;;;;5001501;28;20677;-59
2022/07/02 00:39:12;;;;;;;2.58;0.93;;;22.80;60.40;;;;;;4983200;28;20061;-58
2022/07/02 00:41:38;;;;;;;1.58;0.95;;;22.80;60.30;;;;;;5019982;28;20656;-59
2022/07/02 00:44:04;;;;;;;0.95;0.70;;;22.80;60.40;;;;;;5039781;28;20021;-59
2022/07/02 00:46:30;;;;;;;1.63;0.88;;;22.80;60.40;;;;;;5024598;28;20041;-58
2022/07/02 00:48:55;;;;;;;1.20;0.88;;;22.80;60.20;;;;;;5002441;28;20025;-58
2022/07/02 00:51:21;;;;;;;4.55;1.00;;;22.80;60.40;;;;;;5034622;28;20687;-58
2022/07/02 00:53:47;;;;;;;2.30;0.73;;;22.80;60.20;;;;;;5023342;28;20056;-59
2022/07/02 00:56:13;;;;;;;2.70;0.90;;;22.70;60.50;;;;;;5027796;28;20037;-58
2022/07/02 00:58:38;;;;;;;3.80;0.90;;;22.70;60.50;;;;;;5020595;28;20038;-59
2022/07/02 01:01:04;;;;;;;1.40;0.90;;;22.70;60.40;;;;;;5030555;28;20029;-59
2022/07/02 01:03:29;;;;;;;2.78;0.90;;;22.70;60.30;;;;;;5040978;28;20035;-58
2022/07/02 01:05:55;;;;;;;2.72;1.23;;;22.70;60.30;;;;;;5014241;28;20068;-57
2022/07/02 01:11:08;;;;;;;1.27;0.80;;;22.80;60.10;;;;;;5029905;28;20040;-59
2022/07/02 01:13:33;;;;;;;1.52;1.00;;;22.70;60.10;;;;;;5022355;28;20384;-59
2022/07/02 01:16:00;;;;;;;1.17;0.75;;;22.70;60.00;;;;;;5032398;28;20454;-59
2022/07/02 01:18:25;;;;;;;0.80;0.75;;;22.70;60.10;;;;;;5020475;28;20040;-57
2022/07/02 01:20:50;;;;;;;1.48;0.70;;;22.70;60.30;;;;;;5025945;28;20458;-58
2022/07/02 01:23:16;;;;;;;1.00;0.73;;;22.70;60.20;;;;;;5039995;28;20512;-60
2022/07/02 01:25:49;;;;;;;1.75;0.95;;;22.70;60.30;;;;;;5018098;28;20109;-63
2022/07/02 01:28:15;;;;;;;1.60;0.80;;;22.70;60.30;;;;;;5019508;28;20049;-60
2022/07/02 01:30:40;;;;;;;1.55;0.70;;;22.70;60.40;;;;;;5023284;28;20512;-59
2022/07/02 01:33:06;;;;;;;1.23;1.00;;;22.70;60.50;;;;;;5040058;28;20094;-59
2022/07/02 01:35:31;;;;;;;3.60;1.33;;;22.70;60.40;;;;;;5020832;28;20479;-59
2022/07/02 01:37:57;;;;;;;1.50;0.80;;;22.70;60.10;;;;;;5020420;28;20034;-59
2022/07/02 01:40:23;;;;;;;0.65;0.60;;;22.70;60.40;;;;;;5002219;28;20052;-59
2022/07/02 01:42:48;;;;;;;2.25;0.70;;;22.70;60.40;;;;;;5039499;28;20061;-57
2022/07/02 01:45:14;;;;;;;1.05;0.70;;;22.70;60.40;;;;;;5022096;28;20538;-59
2022/07/02 01:47:39;;;;;;;1.20;0.82;;;22.60;60.30;;;;;;5023030;28;20083;-59
2022/07/02 01:50:05;;;;;;;1.85;1.30;;;22.70;60.20;;;;;;5019411;28;20029;-59
2022/07/02 01:52:30;;;;;;;1.92;0.85;;;22.60;60.40;;;;;;5035536;28;20083;-59
2022/07/02 01:54:56;;;;;;;0.77;0.70;;;22.70;60.40;;;;;;5040304;28;20029;-58
2022/07/02 01:57:22;;;;;;;3.00;1.13;;;22.60;60.20;;;;;;5028961;28;20111;-59
2022/07/02 01:59:47;;;;;;;0.98;0.70;;;22.60;60.00;;;;;;5023145;28;20057;-58
2022/07/02 02:02:13;;;;;;;1.20;0.75;;;22.60;60.00;;;;;;5034659;28;20455;-59
2022/07/02 02:04:39;;;;;;;1.20;1.00;;;22.60;60.30;;;;;;5044108;28;20033;-59
2022/07/02 02:07:04;;;;;;;1.75;0.70;;;22.60;60.30;;;;;;5015132;28;20033;-59
2022/07/02 02:09:30;;;;;;;2.78;0.80;;;22.60;60.10;;;;;;5023347;28;20057;-59
2022/07/02 02:11:55;;;;;;;1.10;1.00;;;22.60;60.40;;;;;;5031490;28;20044;-58
2022/07/02 02:14:21;;;;;;;1.48;0.70;;;22.60;60.30;;;;;;5043975;28;20177;-59
2022/07/02 02:16:46;;;;;;;1.27;0.80;;;22.60;60.20;;;;;;5038008;28;20027;-59
2022/07/02 02:19:12;;;;;;;3.08;0.80;;;22.60;60.40;;;;;;5022477;28;20045;-59
2022/07/02 02:21:38;;;;;;;1.75;0.80;;;22.60;60.30;;;;;;5027480;28;20060;-59
2022/07/02 02:24:04;;;;;;;1.38;0.60;;;22.60;60.30;;;;;;5043140;28;20033;-60
2022/07/02 02:26:29;;;;;;;1.50;0.60;;;22.60;60.90;;;;;;5037889;28;20500;-60
2022/07/02 02:28:55;;;;;;;2.53;0.98;;;22.60;60.20;;;;;;5000705;28;20033;-60
2022/07/02 02:31:21;;;;;;;2.28;0.80;;;22.60;60.50;;;;;;5005548;28;20460;-59
2022/07/02 02:33:46;;;;;;;1.08;0.80;;;22.60;60.40;;;;;;5042426;28;20044;-59
2022/07/02 02:36:12;;;;;;;1.20;0.70;;;22.50;60.50;;;;;;5043436;28;20033;-60
2022/07/02 02:38:37;;;;;;;3.65;0.82;;;22.60;60.40;;;;;;5023846;28;20033;-57
2022/07/02 02:41:07;;;;;;;1.35;0.80;;;22.60;60.40;;;;;;5022689;28;20548;-60
2022/07/02 02:43:33;;;;;;;1.58;0.80;;;22.60;60.40;;;;;;5039892;28;20082;-59
2022/07/02 02:45:59;;;;;;;0.85;0.80;;;22.60;60.30;;;;;;5041822;28;20029;-60
2022/07/02 02:48:24;;;;;;;1.25;1.00;;;22.50;60.30;;;;;;5025814;28;20507;-59
2022/07/02 02:50:50;;;;;;;2.40;0.90;;;22.50;60.30;;;;;;5022249;28;20033;-58
2022/07/02 02:53:15;;;;;;;3.47;0.90;;;22.50;60.30;;;;;;5035949;28;20637;-59
2022/07/02 02:55:41;;;;;;;2.88;1.00;;;22.50;60.30;;;;;;5042176;28;20444;-60
2022/07/02 02:58:06;;;;;;;1.20;0.85;;;22.50;60.10;;;;;;5013019;28;20041;-58
2022/07/02 03:00:32;;;;;;;2.20;0.80;;;22.50;60.40;;;;;;5022075;28;20959;-59
2022/07/02 03:02:57;;;;;;;1.20;0.93;;;22.50;60.40;;;;;;5031997;28;20029;-59
2022/07/02 03:05:23;;;;;;;2.17;1.13;;;22.50;60.30;;;;;;5042161;28;20040;-58
2022/07/02 03:07:48;;;;;;;2.33;1.08;;;22.50;60.40;;;;;;5034101;28;20041;-60
2022/07/02 03:10:14;;;;;;;0.98;0.90;;;22.50;60.40;;;;;;5020793;28;20033;-59
2022/07/02 03:12:39;;;;;;;2.05;0.80;;;22.50;60.20;;;;;;5028526;28;20032;-59
2022/07/02 03:15:05;;;;;;;3.28;1.10;;;22.50;60.40;;;;;;5042383;28;20595;-59
2022/07/02 03:17:31;;;;;;;1.45;1.10;;;22.50;60.50;;;;;;5038510;28;20026;-59
2022/07/02 03:19:56;;;;;;;3.15;0.95;;;22.50;60.50;;;;;;5021552;28;20416;-59
2022/07/02 03:22:22;;;;;;;0.95;0.80;;;22.50;60.50;;;;;;5023119;28;20037;-59
2022/07/02 03:24:47;;;;;;;1.30;1.10;;;22.50;60.40;;;;;;5040810;28;20048;-59
2022/07/02 03:27:13;;;;;;;2.60;0.90;;;22.50;60.30;;;;;;5041618;28;20242;-59
2022/07/02 03:29:38;;;;;;;4.82;1.13;;;22.50;60.20;;;;;;5019207;28;20441;-59
2022/07/02 03:32:04;;;;;;;2.40;1.00;;;22.50;60.40;;;;;;5020143;28;20032;-59
2022/07/02 03:34:30;;;;;;;2.55;0.88;;;22.50;60.40;;;;;;5023759;28;20045;-59
2022/07/02 03:36:55;;;;;;;1.10;1.00;;;22.50;60.40;;;;;;5021986;28;20503;-59
2022/07/02 03:39:21;;;;;;;1.08;0.80;;;22.50;60.20;;;;;;5037093;28;20022;-59
2022/07/02 03:41:46;;;;;;;1.88;0.80;;;22.50;60.20;;;;;;5041958;28;20029;-59
2022/07/02 03:44:12;;;;;;;1.85;1.00;;;22.50;60.30;;;;;;5028646;28;20033;-58
2022/07/02 03:46:37;;;;;;;2.67;0.80;;;22.40;60.20;;;;;;5004733;28;20053;-59
2022/07/02 03:49:03;;;;;;;1.35;0.82;;;22.50;60.10;;;;;;5033626;28;20033;-59
2022/07/02 03:51:28;;;;;;;0.75;0.60;;;22.40;60.20;;;;;;5041299;28;20455;-59
2022/07/02 03:53:54;;;;;;;1.38;1.20;;;22.50;60.30;;;;;;5030844;28;20441;-61
2022/07/02 03:56:19;;;;;;;1.80;0.90;;;22.50;60.10;;;;;;5021736;28;20038;-58
2022/07/02 03:58:45;;;;;;;2.70;1.25;;;22.40;60.20;;;;;;5103747;22;20149;-59
2022/07/02 04:01:10;;;;;;;1.33;0.85;;;22.40;59.90;;;;;;5082768;28;20020;-58
2022/07/02 04:03:36;;;;;;;1.98;1.00;;;22.40;60.20;;;;;;5081690;28;20031;-59
2022/07/02 04:06:02;;;;;;;2.72;1.27;;;22.40;60.10;;;;;;5075853;28;20028;-59
2022/07/02 04:08:27;;;;;;;3.45;0.90;;;22.30;60.50;;;;;;5083881;28;20023;-59
2022/07/02 04:10:53;;;;;;;5.07;1.17;;;22.30;60.50;;;;;;5101769;28;20027;-59
2022/07/02 04:13:18;;;;;;;5.15;1.52;;;22.30;60.70;;;;;;5099487;28;20190;-59
2022/07/02 04:15:44;;;;;;;3.47;1.40;;;22.30;60.80;;;;;;5081904;28;20047;-60
2022/07/02 04:18:09;;;;;;;3.05;1.38;;;22.30;60.70;;;;;;5082301;28;20108;-58
2022/07/02 04:20:35;;;;;;;2.08;1.15;;;22.20;60.70;;;;;;5100031;28;20024;-59
2022/07/02 04:23:00;;;;;;;1.90;1.30;;;22.20;60.70;;;;;;5101377;28;20023;-60
2022/07/02 04:25:26;;;;;;;2.30;1.10;;;22.20;60.70;;;;;;5082379;28;20043;-60
2022/07/02 04:27:51;;;;;;;1.65;1.20;;;22.20;60.60;;;;;;5081193;28;20040;-59
2022/07/02 04:30:17;;;;;;;2.45;1.42;;;22.20;60.80;;;;;;5097124;28;20569;-58
2022/07/02 04:32:42;;;;;;;2.67;1.30;;;22.20;60.80;;;;;;5101526;28;20048;-59
2022/07/02 04:35:08;;;;;;;2.60;1.40;;;22.20;60.50;;;;;;5085966;28;20027;-58
2022/07/02 04:37:33;;;;;;;1.50;1.38;;;22.20;60.60;;;;;;5080871;28;20044;-59
2022/07/02 04:39:59;;;;;;;1.90;1.23;;;22.20;60.50;;;;;;5093343;28;20106;-58
2022/07/02 04:42:24;;;;;;;1.58;1.33;;;22.30;60.50;;;;;;5100323;28;20024;-59
2022/07/02 04:44:50;;;;;;;1.75;1.00;;;22.30;60.40;;;;;;5090165;28;20547;-58
2022/07/02 04:47:15;;;;;;;3.78;1.65;;;22.30;60.40;;;;;;5081191;28;20039;-59
2022/07/02 04:49:41;;;;;;;2.60;1.70;;;22.30;60.20;;;;;;5089496;28;20935;-59
2022/07/02 04:52:06;;;;;;;1.90;1.05;;;22.30;60.30;;;;;;5099551;28;20027;-59
2022/07/02 04:54:32;;;;;;;3.25;1.55;;;22.30;60.30;;;;;;5093981;28;20115;-57
2022/07/02 04:56:57;;;;;;;5.65;1.35;;;22.30;60.20;;;;;;5080697;28;20024;-59
2022/07/02 04:59:23;;;;;;;2.60;1.42;;;22.30;60.10;;;;;;5085260;28;20549;-58
2022/07/02 05:01:48;;;;;;;1.55;1.35;;;22.30;60.20;;;;;;5099510;28;20023;-59
2022/07/02 05:04:14;;;;;;;2.55;1.17;;;22.30;60.20;;;;;;5098196;28;20027;-58
2022/07/02 05:06:39;;;;;;;2.05;1.05;;;22.30;60.20;;;;;;5080640;28;20339;-59
2022/07/02 05:09:05;;;;;;;1.58;1.30;;;22.30;60.10;;;;;;5081590;28;20024;-59
2022/07/02 05:11:31;;;;;;;2.00;1.40;;;22.30;60.00;;;;;;5100992;28;20038;-59
2022/07/02 05:13:56;;;;;;;3.33;1.30;;;22.30;60.00;;;;;;5101165;28;20020;-59
2022/07/02 05:16:21;;;;;;;1.23;1.13;;;22.30;60.20;;;;;;5081338;28;20486;-58
2022/07/02 05:18:47;;;;;;;1.70;1.40;;;22.30;60.20;;;;;;5079899;28;20024;-58
2022/07/02 05:21:13;;;;;;;1.27;1.17;;;22.30;60.00;;;;;;5098779;28;20119;-59
2022/07/02 05:23:38;;;;;;;2.08;1.55;;;22.30;59.90;;;;;;5101132;28;20047;-56
2022/07/02 05:26:04;;;;;;;1.33;1.20;;;22.30;60.20;;;;;;5083961;28;21911;-59
2022/07/02 05:28:29;;;;;;;1.83;1.40;;;22.30;60.10;;;;;;5080617;28;20082;-58
2022/07/02 05:30:55;;;;;;;2.33;1.25;;;22.30;60.20;;;;;;5097460;28;20754;-59
2022/07/02 05:33:20;;;;;;;2.75;1.33;;;22.30;60.30;;;;;;5105009;27;20036;-59
2022/07/02 05:35:46;;;;;;;2.25;1.33;;;22.30;60.30;;;;;;5092554;28;20028;-57
2022/07/02 05:38:12;;;;;;;1.35;1.20;;;22.30;60.20;;;;;;5084672;28;20104;-57
2022/07/02 05:40:37;;;;;;;3.10;1.65;;;22.30;60.30;;;;;;5094045;28;20030;-58
2022/07/02 05:43:03;;;;;;;1.52;1.40;;;22.30;60.30;;;;;;5103859;28;20498;-59
2022/07/02 05:45:28;;;;;;;1.70;1.45;;;22.30;60.10;;;;;;5096350;27;20040;-59
2022/07/02 05:47:54;;;;;;;6.57;1.30;;;22.20;60.30;;;;;;5084245;28;20119;-59
2022/07/02 05:50:19;;;;;;;2.03;1.38;;;22.30;60.20;;;;;;5089248;28;20118;-59
2022/07/02 05:52:45;;;;;;;2.20;1.58;;;22.30;60.60;;;;;;5104309;27;20043;-61
2022/07/02 05:55:10;;;;;;;2.58;1.33;;;22.30;60.10;;;;;;5100644;28;20573;-58
2022/07/02 05:57:36;;;;;;;1.75;1.15;;;22.30;60.20;;;;;;5083338;28;20271;-57
2022/07/02 06:00:03;;;;;;;1.92;1.38;;;22.30;60.50;;;;;;5085046;28;20029;-58
2022/07/02 06:02:28;;;;;;;1.90;1.63;;;22.30;60.40;;;;;;5104280;27;20098;-59
2022/07/02 06:04:54;;;;;;;2.70;1.30;;;22.30;60.20;;;;;;5103722;27;20035;-59
2022/07/02 06:10:05;;;;;;;3.70;1.55;;;22.30;60.20;;;;;;5084365;28;20031;-58
2022/07/02 06:12:30;;;;;;;2.88;1.13;;;22.30;60.20;;;;;;5084290;27;20118;-59
2022/07/02 06:14:56;;;;;;;2.22;1.40;;;22.30;60.30;;;;;;5103779;27;20065;-58
2022/07/02 06:17:21;;;;;;;3.40;1.50;;;22.30;60.40;;;;;;5084168;28;20028;-57
2022/07/02 06:19:48;;;;;;;3.33;1.30;;;22.20;60.80;;;;;;5082957;28;20041;-58
2022/07/02 06:22:14;;;;;;;1.75;1.10;;;22.20;60.30;;;;;;5101823;27;20591;-58
2022/07/02 06:24:39;;;;;;;1.77;1.35;;;22.20;60.40;;;;;;5104162;27;20060;-58
2022/07/02 06:27:05;;;;;;;2.92;1.80;;;22.20;60.20;;;;;;5087697;28;20024;-58
2022/07/02 06:29:31;;;;;;;1.67;1.58;;;22.20;60.20;;;;;;5082959;28;20036;-57
2022/07/02 06:31:56;;;;;;;3.80;1.40;;;22.20;60.30;;;;;;5097188;28;20034;-58
2022/07/02 06:34:22;;;;;;;1.30;1.20;;;22.20;59.90;;;;;;5102915;28;20104;-58
2022/07/02 06:36:47;;;;;;;1.83;1.48;;;22.20;59.90;;;;;;5091490;28;20088;-58
2022/07/02 06:39:13;;;;;;;1.58;1.40;;;22.20;59.90;;;;;;5082615;28;20031;-57
2022/07/02 06:44:23;;;;;;;2.78;1.70;;;22.20;59.90;;;;;;5103337;27;20042;-59
2022/07/02 06:46:48;;;;;;;4.95;1.40;;;22.20;60.00;;;;;;5092328;28;20024;-59
2022/07/02 06:49:14;;;;;;;2.28;1.45;;;22.20;60.10;;;;;;5082250;28;20753;-59
2022/07/02 06:51:39;;;;;;;1.35;1.20;;;22.20;59.80;;;;;;5090960;27;20031;-56
2022/07/02 06:54:05;;;;;;;2.90;1.77;;;22.20;60.00;;;;;;5101163;28;20113;-57
2022/07/02 06:56:35;;;;;;;4.93;2.00;;;22.10;59.90;;;;;;5096004;28;20406;-58
2022/07/02 06:59:02;;;;;;;6.10;2.08;;;22.00;59.40;;;;;;5082034;28;20040;-59
2022/07/02 07:01:27;;;;;;;2.63;1.65;;;22.00;59.60;;;;;;5088638;28;20146;-59
2022/07/02 07:03:53;;;;;;;4.45;1.98;;;22.00;59.70;;;;;;5103326;27;20059;-59
2022/07/02 07:06:38;;;;;;;9.85;1.90;;;21.90;59.70;;;;;;5099840;28;20028;-59
2022/07/02 07:09:03;;;;;;;11.55;2.17;;;22.00;59.60;;;;;;5081964;28;20201;-59
2022/07/02 07:11:29;;;;;;;5.60;1.60;;;21.90;59.20;;;;;;5086841;28;20028;-59
2022/07/02 07:13:54;;;;;;;5.85;1.70;;;21.90;59.10;;;;;;5088759;28;20106;-58
2022/07/02 07:16:20;;;;;;;4.07;1.30;;;21.90;59.10;;;;;;5097514;27;20055;-58
2022/07/02 07:18:55;;;;;;;6.28;1.60;;;21.90;58.50;;;;;;5080692;28;20116;-58
2022/07/02 07:21:20;;;;;;;6.95;1.67;;;21.80;58.80;;;;;;5082209;28;20032;-58
2022/07/02 07:23:46;;;;;;;4.15;1.40;;;21.80;58.80;;;;;;5101555;28;20032;-58
2022/07/02 07:26:11;;;;;;;2.72;1.35;;;21.80;58.60;;;;;;5102647;28;20032;-59
2022/07/02 07:28:37;;;;;;;3.47;1.40;;;21.70;58.30;;;;;;5061580;28;20299;-58
2022/07/02 07:31:02;;;;;;;6.55;1.58;;;21.80;58.90;;;;;;5062008;28;20513;-58
2022/07/02 07:33:28;;;;;;;2.38;1.85;;;21.70;58.70;;;;;;5099056;28;20422;-58
2022/07/02 07:35:53;;;;;;;4.72;1.40;;;21.60;55.70;;;;;;5102068;27;20111;-59
2022/07/02 07:38:19;;;;;;;3.35;2.03;;;21.60;60.40;;;;;;5085766;28;20123;-59
2022/07/02 07:40:44;;;;;;;8.50;1.77;;;21.60;60.50;;;;;;5081165;28;20081;-57
2022/07/02 07:43:10;;;;;;;2.90;1.42;;;21.60;59.70;;;;;;5095715;28;20727;-56
2022/07/02 07:45:35;;;;;;;3.17;1.40;;;21.60;59.00;;;;;;5102206;27;20189;-58
2022/07/02 07:48:01;;;;;;;2.47;1.20;;;21.60;58.70;;;;;;5089420;28;20443;-58
2022/07/02 07:50:26;;;;;;;3.85;1.77;;;21.50;59.10;;;;;;5080999;28;20733;-59
2022/07/02 07:52:51;;;;;;;3.42;1.98;;;21.60;59.10;;;;;;5091797;27;20084;-58
2022/07/02 07:55:17;;;;;;;3.00;1.30;;;21.60;59.60;;;;;;5100688;27;20024;-61
2022/07/02 07:57:43;;;;;;;2.58;1.58;;;21.70;58.50;;;;;;5092642;28;20494;-62
2022/07/02 08:00:09;;;;;;;3.50;1.13;;;21.70;58.80;;;;;;5080497;28;20080;-56
2022/07/02 08:02:34;;;;;;;1.92;1.30;;;21.60;58.50;;;;;;5086154;28;20032;-58
2022/07/02 08:04:59;;;;;;;1.73;1.23;;;21.60;58.80;;;;;;5101716;28;20023;-58
2022/07/02 08:07:25;;;;;;;3.67;1.23;;;21.60;58.90;;;;;;5095451;28;20032;-59
2022/07/02 08:09:54;;;;;;;2.80;1.00;;;21.60;58.90;;;;;;5080249;28;20051;-59
2022/07/02 08:12:22;;;;;;;3.20;1.70;;;21.60;58.80;;;;;;5083876;28;20027;-56
2022/07/02 08:14:48;;;;;;;2.72;1.55;;;21.60;58.80;;;;;;5101461;28;20031;-60
2022/07/02 08:17:14;;;;;;;3.05;1.52;;;21.60;58.60;;;;;;5099852;27;20047;-58
2022/07/02 08:19:40;;;;;;;4.07;1.50;;;21.60;58.40;;;;;;5080318;28;20024;-58
2022/07/02 08:22:05;;;;;;;2.70;1.60;;;21.60;58.40;;;;;;5080170;28;20028;-57
2022/07/02 08:24:31;;;;;;;2.22;1.50;;;21.50;57.80;;;;;;5100714;28;20039;-57
2022/07/02 08:26:56;;;;;;;1.30;1.20;;;21.50;57.60;;;;;;5098940;28;20024;-58
2022/07/02 08:29:22;;;;;;;2.35;1.20;;;21.50;57.30;;;;;;5082201;28;20502;-57
2022/07/02 08:31:47;;;;;;;1.85;1.17;;;21.50;57.60;;;;;;5080888;28;20040;-58
2022/07/02 08:34:14;;;;;;;2.33;1.10;;;21.50;56.70;;;;;;5097076;28;20080;-58
2022/07/02 08:36:39;;;;;;;1.45;1.02;;;21.50;56.80;;;;;;5099042;28;20028;-59
2022/07/02 08:39:05;;;;;;;2.65;1.50;;;21.50;57.10;;;;;;5085607;28;20035;-57
2022/07/02 08:41:30;;;;;;;2.33;0.98;;;21.60;57.20;;;;;;5080893;28;20242;-57
2022/07/02 08:43:56;;;;;;;1.90;1.23;;;21.60;57.40;;;;;;5074930;28;20040;-58
2022/07/02 08:46:22;;;;;;;3.60;1.30;;;21.50;56.70;;;;;;5099556;28;20032;-57
2022/07/02 08:48:48;;;;;;;8.70;1.55;;;21.60;57.10;;;;;;5088450;28;20047;-60
2022/07/02 08:51:14;;;;;;;3.13;1.20;;;21.70;57.30;;;;;;5079752;28;20036;-57
2022/07/02 08:53:41;;;;;;;3.60;1.27;;;21.70;56.80;;;;;;5088089;28;20246;-57
2022/07/02 08:56:08;;;;;;;4.70;1.33;;;21.60;56.80;;;;;;5097522;28;20518;-56
2022/07/02 08:58:33;;;;;;;5.38;1.27;;;21.60;56.90;;;;;;5090356;28;20067;-56
2022/07/02 09:00:59;;;;;;;1.95;1.50;;;21.60;58.00;;;;;;5080225;28;20515;-57
2022/07/02 09:03:25;;;;;;;5.80;1.35;;;21.50;56.50;;;;;;5084743;28;20176;-58
2022/07/02 09:05:51;;;;;;;2.55;1.13;;;21.50;55.90;;;;;;5088171;28;20103;-58
2022/07/02 09:08:17;;;;;;;7.78;2.00;;;21.50;56.90;;;;;;5103682;27;20036;-57
2022/07/02 09:10:43;;;;;;;7.10;2.13;;;21.50;55.70;;;;;;5083504;28;20600;-59
2022/07/02 09:13:08;;;;;;;3.83;1.05;;;21.50;55.80;;;;;;5069635;28;20056;-59
2022/07/02 09:15:34;;;;;;;6.57;1.35;;;21.50;56.10;;;;;;5088307;28;20028;-58
2022/07/02 09:18:00;;;;;;;2.13;1.00;;;21.60;56.60;;;;;;5107532;28;20027;-58
2022/07/02 09:20:25;;;;;;;4.43;1.02;;;21.50;55.50;;;;;;5084778;28;20465;-58
2022/07/02 09:22:51;;;;;;;1.58;1.08;;;21.50;55.80;;;;;;5083687;28;20031;-59
2022/07/02 09:25:22;;;;;;;1.65;1.00;;;21.50;56.20;;;;;;5102247;28;20023;-58
2022/07/02 09:27:48;;;;;;;1.95;1.25;;;21.50;55.90;;;;;;5106024;28;20087;-58
2022/07/02 09:30:17;;;;;;;4.75;1.00;;;21.60;56.10;;;;;;5086215;28;21950;-58
2022/07/02 09:32:44;;;;;;;3.08;1.50;;;21.60;55.30;;;;;;5084875;28;20159;-57
2022/07/02 09:35:21;;;;;;;4.80;1.40;;;21.50;56.30;;;;;;5099803;27;20038;-58
2022/07/02 09:37:48;;;;;;;2.08;1.42;;;21.50;56.10;;;;;;5101491;27;20507;-58
2022/07/02 09:40:13;;;;;;;2.03;1.05;;;21.50;56.10;;;;;;5098411;28;20422;-58
2022/07/02 09:42:39;;;;;;;3.78;1.20;;;21.50;55.40;;;;;;5104703;27;20016;-59
2022/07/02 09:45:05;;;;;;;4.03;1.42;;;21.50;56.00;;;;;;5089735;28;20157;-58
2022/07/02 09:47:35;;;;;;;1.52;1.00;;;21.60;55.90;;;;;;5083957;28;20039;-55
2022/07/02 09:50:08;;;;;;;4.43;1.42;;;21.50;55.60;;;;;;5096578;28;20027;-58
2022/07/02 09:52:34;;;;;;;4.65;1.50;;;21.50;55.30;;;;;;5104850;28;20028;-58
2022/07/02 09:54:59;;;;;;;5.70;1.70;;;21.50;54.60;;;;;;5092187;28;20031;-59
2022/07/02 09:57:26;;;;;;;2.03;1.23;;;21.60;54.40;;;;;;5083430;28;20036;-58
2022/07/02 09:59:51;;;;;;;1.98;0.95;;;21.60;53.20;;;;;;5092218;28;20012;-56
2022/07/02 10:02:22;;;;;;;7.80;1.45;;;21.60;53.80;;;;;;5105048;28;20533;-57
2022/07/02 10:04:50;;;;;;;9.68;1.85;;;21.60;53.70;;;;;;5095063;28;20474;-55
2022/07/02 10:07:15;;;;;;;7.47;1.33;;;21.60;55.00;;;;;;5081986;28;20066;-56
2022/07/02 10:09:42;;;;;;;6.55;1.60;;;21.70;55.20;;;;;;5090092;27;20103;-56
2022/07/02 10:12:07;;;;;;;2.63;1.27;;;21.60;55.10;;;;;;5103637;28;20031;-57
2022/07/02 10:14:34;;;;;;;5.53;1.30;;;21.60;53.90;;;;;;5099053;27;20028;-56
2022/07/02 10:17:00;;;;;;;2.25;1.20;;;21.60;53.70;;;;;;5081878;28;20483;-57
2022/07/02 10:19:26;;;;;;;2.28;1.52;;;21.60;55.10;;;;;;5068860;28;20032;-57
2022/07/02 10:21:51;;;;;;;1.95;1.20;;;21.70;55.10;;;;;;5103779;27;20364;-57
2022/07/02 10:24:17;;;;;;;1.20;0.80;;;21.70;55.00;;;;;;5085183;28;20101;-58
2022/07/02 10:26:42;;;;;;;1.60;0.93;;;21.70;55.30;;;;;;5084680;28;20040;-58
2022/07/02 10:29:08;;;;;;;2.70;1.13;;;21.70;55.30;;;;;;5083335;28;20550;-57
2022/07/02 10:31:37;;;;;;;1.85;0.80;;;21.70;55.60;;;;;;5102010;28;20042;-57
2022/07/02 10:34:21;;;;;;;6.18;1.08;;;21.70;55.50;;;;;;5103200;28;20032;-58
2022/07/02 10:36:46;;;;;;;5.05;1.45;;;21.80;55.60;;;;;;5064067;28;20027;-58
2022/07/02 10:39:15;;;;;;;5.38;1.20;;;21.80;55.70;;;;;;5061866;28;20021;-58
2022/07/02 10:41:40;;;;;;;4.75;1.25;;;21.80;55.70;;;;;;5100574;27;20039;-56
2022/07/02 10:44:06;;;;;;;6.72;1.40;;;21.80;55.80;;;;;;5104604;27;20026;-58
2022/07/02 10:46:35;;;;;;;4.07;1.42;;;21.80;54.40;;;;;;5065180;28;20437;-57
2022/07/02 10:49:00;;;;;;;6.70;1.40;;;21.80;54.60;;;;;;5062877;28;20029;-58
2022/07/02 10:51:27;;;;;;;5.22;1.20;;;21.90;55.10;;;;;;5094430;27;20375;-57
2022/07/02 10:54:05;;;;;;;4.78;1.20;;;21.90;55.10;;;;;;5103765;27;20023;-58
2022/07/02 10:56:51;;;;;;;6.20;1.40;;;21.90;55.40;;;;;;5088366;28;20120;-58
2022/07/02 10:59:23;;;;;;;3.13;1.23;;;21.90;55.30;;;;;;5071900;28;20494;-58
2022/07/02 11:01:59;;;;;;;2.65;1.00;;;21.90;55.50;;;;;;5100256;28;20024;-64
2022/07/02 11:04:25;;;;;;;2.63;0.95;;;21.90;53.60;;;;;;5103993;27;20072;-58
2022/07/02 11:06:50;;;;;;;6.15;1.60;;;21.90;55.20;;;;;;5086622;28;20621;-58
2022/07/02 11:09:16;;;;;;;7.00;1.35;;;21.90;53.80;;;;;;5083240;28;20050;-58
2022/07/02 11:11:45;;;;;;;1.50;0.90;;;21.90;54.80;;;;;;5098631;28;20024;-55
2022/07/02 11:14:11;;;;;;;1.95;1.02;;;21.90;54.50;;;;;;5101792;28;20035;-57
2022/07/02 11:16:51;;;;;;;2.88;0.70;;;21.90;54.00;;;;;;5089759;27;20573;-56
2022/07/02 11:19:19;;;;;;;3.10;0.98;;;22.00;54.10;;;;;;5082478;28;20712;-57
2022/07/02 11:21:45;;;;;;;2.30;0.80;;;21.90;54.20;;;;;;5097251;28;20035;-56
2022/07/02 11:24:11;;;;;;;1.70;1.08;;;21.90;54.90;;;;;;5101848;28;20177;-58
2022/07/02 11:26:40;;;;;;;2.78;1.10;;;22.00;53.90;;;;;;5089492;28;20654;-57
2022/07/02 11:29:05;;;;;;;1.35;0.90;;;22.00;55.10;;;;;;5082338;28;20039;-57
2022/07/02 11:31:34;;;;;;;1.42;1.10;;;22.00;53.70;;;;;;5093343;28;20047;-56
2022/07/02 11:33:59;;;;;;;3.53;1.00;;;21.90;51.10;;;;;;5103252;28;20035;-57
2022/07/02 11:36:26;;;;;;;2.05;0.95;;;21.90;53.40;;;;;;5093857;28;20027;-57
2022/07/02 11:38:53;;;;;;;3.25;0.93;;;21.90;53.90;;;;;;5082202;28;20032;-58
2022/07/02 11:41:26;;;;;;;5.80;1.00;;;22.00;54.30;;;;;;5090613;28;20027;-57
2022/07/02 11:43:53;;;;;;;6.25;1.10;;;21.90;54.40;;;;;;5102480;27;21597;-58
2022/07/02 11:46:23;;;;;;;5.07;1.55;;;22.00;54.50;;;;;;5096131;28;20090;-57
2022/07/02 11:48:49;;;;;;;10.85;1.75;;;22.00;55.00;;;;;;5082451;28;20051;-57
2022/07/02 11:51:15;;;;;;;9.82;1.77;;;22.00;55.40;;;;;;5087725;28;20573;-56
2022/07/02 11:53:41;;;;;;;10.52;2.08;;;22.00;55.40;;;;;;5103345;28;20028;-57
2022/07/02 11:56:11;;;;;;;20.83;3.13;;;22.00;55.70;;;;;;5098508;28;20035;-56
2022/07/02 11:58:41;;;;;;;18.10;2.63;;;22.00;55.90;;;;;;5081840;28;20040;-55
2022/07/02 12:01:20;;;;;;;14.23;3.70;;;22.00;56.10;;;;;;5083852;27;20023;-56
2022/07/02 12:03:46;;;;;;;22.75;3.42;;;22.00;56.20;;;;;;5103440;27;20095;-57
2022/07/02 12:06:11;;;;;;;28.20;3.97;;;22.00;54.70;;;;;;5096142;28;20024;-58
2022/07/02 12:08:37;;;;;;;20.85;2.97;;;22.00;55.40;;;;;;5081031;28;20039;-57
2022/07/02 12:11:16;;;;;;;35.58;5.10;;;22.00;55.40;;;;;;5080529;28;20036;-57
2022/07/02 12:13:42;;;;;;;23.80;3.35;;;22.00;55.10;;;;;;5081963;28;20143;-57
2022/07/02 12:16:14;;;;;;;32.28;5.30;;;22.00;53.50;;;;;;5083163;28;20530;-57
2022/07/02 12:18:40;;;;;;;27.70;4.75;;;22.00;54.80;;;;;;5101178;28;20062;-58
2022/07/02 12:21:16;;;;;;;31.65;4.07;;;22.00;54.70;;;;;;5083662;28;20055;-58
2022/07/02 12:23:46;;;;;;;33.72;5.53;;;22.00;55.20;;;;;;5082255;28;20030;-55
2022/07/02 12:26:22;;;;;;;40.95;6.53;;;22.00;55.50;;;;;;5081214;28;20032;-58
2022/07/02 12:31:48;;;;;;;33.35;6.68;;;22.10;57.10;;;;;;5099164;28;20047;-58
2022/07/02 12:34:13;;;;;;;22.77;5.35;;;22.10;56.90;;;;;;5081085;28;20226;-57
2022/07/02 12:36:53;;;;;;;16.10;4.55;;;22.10;56.00;;;;;;5082027;28;21323;-58
2022/07/02 12:39:19;;;;;;;29.85;5.72;;;22.10;54.30;;;;;;5080747;28;20034;-57
2022/07/02 12:41:45;;;;;;;18.90;4.15;;;22.20;55.40;;;;;;5085338;28;20032;-57
2022/07/02 12:44:18;;;;;;;19.70;4.20;;;22.20;54.10;;;;;;5102548;28;20464;-57
2022/07/02 12:46:45;;;;;;;16.65;4.22;;;22.10;55.00;;;;;;5102204;28;20036;-57
2022/07/02 12:49:19;;;;;;;12.50;2.85;;;22.20;54.60;;;;;;5101514;28;20497;-57
2022/07/02 12:51:52;;;;;;;8.35;2.58;;;22.20;54.20;;;;;;5099802;28;20036;-58